Hlavní strana
METAR-TAF:

METAR-TAF

Letiště :

Mezinárodní letiště Norman Manley

Kingston, Jamajka

zeměpisná šířka: 17-56N, zeměpisná délka: 076-47W, výška: 3 m

Aktuální stav počasí

Zpráva byla vytvořena před 59 minutami, v 20:00 UTC
Jihovýchodní vítr 11 kt
Teplota 29°C
Vlhkost vzduchu 70%
Tlak 1010 hPa
Viditelnost 10 km a více
Skoro jasno ve výšce 2200 ft

METAR: MKJP 042000Z 13011KT 9999 FEW022 29/23 Q1010

Čas: 15:59 (20:59 UTC)

Předpověď počasí

Zpráva byla vytvořena před 3 hodinami a 44 minutami, v 17:15 UTC
Předpověď platná od 04 v 18 UTC do 05 v 18 UTC
Jihojihovýchodní vítr 8 kt
Viditelnost 10 km a více
Skoro jasno ve výšce 2200 ft
Dočasný
od 04 v 18 UTC do 04 v 24 UTC
Skoro jasno ve výšce 2000 ft
Polojasno ve výšce 3200 ft
Změna
od 04 v 23 UTC do 05 v 01 UTC
vítr z různých směrů 2 kt
Změna
od 05 v 14 UTC do 05 v 16 UTC
Jihojihovýchodní vítr 10 kt

TAF: MKJP 041715Z 0418/0518 16008KT 9999 FEW022 TEMPO 0418/0424 FEW020 SCT032 BECMG 0423/0501 VRB02KT BECMG 0514/0516 16010KT

Stav a předpovědi počasí z více než 4 000 letišť (zprávy METAR a TAF).

Červené a žluté tečky na mapě představují dostupné meteorologické stanice.

Když kurzor umístíte na tečku, zobrazí se název stanice.

Pak kliknutím zobrazíte stav a předpověď počasí.

Chcete-li změnit mapu, kliknutím na zelené tlačítko se znaménkem +mapu přiblížíte, kliknutím na zelené tlačítko se znaménkem – mapu oddálíte a kliknutím na zelené šipky přejdete na sousední mapy.


METAR-TAF: